Loging...

KPDC, Korea Polar Data Center

Korea Polar Data Center Scientific observations and results from Antarctica shall
be exchanged and made freely available

Keyword Search

Advanced Search

Search 22,860 data out of 29,653

Metadata Search Results1
No. Title Reg. Date
1 [KOPRI-KPDC-00002163]O2/Ar - NCP of surface water measured using an equilibrator inlet mass spectrometer (2017.08 & 2020.08) 2022-11-10
2 [KOPRI-KPDC-00002156]2022 FVCOM results for sea level in Svalbard Kongsfjorden 2022-11-07
3 [KOPRI-KPDC-00002157]2022 FVCOM results for salinity in Svalbard Kongsfjorden 2022-11-07
4 [KOPRI-KPDC-00002158]2022 FVCOM results for temperature in Svalbard Kongsfjorden 2022-11-07
5 [KOPRI-KPDC-00002159]2022 FVCOM results for particle tracking (2007/05) in Svalbard Kongsfjorden 2022-11-07
6 [KOPRI-KPDC-00002161]2022 FVCOM results for current in Svalbard Kongsfjorden 2022-11-07
7 [KOPRI-KPDC-00002160]2022 FVCOM results for particle tracking (2007/07) in Svalbard Kongsfjorden 2022-11-07
8 [KOPRI-KPDC-00002162]Physical and biochemical data obtained during the 2020 Arctic cruise (ARA11B) 2022-11-07
9 [KOPRI-KPDC-00002140]GPS data on ARAON DaDis for Arctic cruise, 2022 2022-11-04
10 [KOPRI-KPDC-00002141]Gyro compass data on ARAON DaDis for Arctic cruise, 2022 2022-11-04
11 [KOPRI-KPDC-00002142]Fluorometer data on ARAON DaDis for Arctic cruise, 2022 2022-11-04
12 [KOPRI-KPDC-00002143]Motion sensor data on ARAON DaDis for Arctic cruise, 2022 2022-11-04
13 [KOPRI-KPDC-00002144]Thermosalinograph data on ARAON DaDis for Arctic cruise, 2022 2022-11-04
14 [KOPRI-KPDC-00002145]Wind data on ARAON DaDis for Arctic cruise, 2022 2022-11-04
15 [KOPRI-KPDC-00002146]Weather data on ARAON DaDis for Arctic cruise, 2022 2022-11-04
16 [KOPRI-KPDC-00001472]AMRS20-GC04 2022-11-03
17 [KOPRI-KPDC-00001842]RS21-GC06 2022-11-03
18 [KOPRI-KPDC-00001841]RS21-GC05 2022-11-03
19 [KOPRI-KPDC-00001840]RS21-GC04 2022-11-03
20 [KOPRI-KPDC-00001835]RS21-GC03 2022-11-03
21 [KOPRI-KPDC-00001836]RS21-GC02 2022-11-03
22 [KOPRI-KPDC-00001839]RS21-GC01 2022-11-03
23 [KOPRI-KPDC-00001605]Gravity core from Antarctic Bellinghausen Sea (BS17-GC18) 2022-11-03
24 [KOPRI-KPDC-00001191]RS19-GC03 2022-11-03
25 [KOPRI-KPDC-00001192]RS19-GC02B 2022-11-03
26 [KOPRI-KPDC-00001184]RS19-GC11 2022-11-03
27 [KOPRI-KPDC-00001475]AM20-GC09 2022-11-03
28 [KOPRI-KPDC-00001474]AM20-GC06 2022-11-03
29 [KOPRI-KPDC-00001473]AMRS20-GC05 2022-11-03
30 [KOPRI-KPDC-00001471]AMRS20-GC02 2022-11-03
31 [KOPRI-KPDC-00001187]RS19-GC08 2022-11-03
32 [KOPRI-KPDC-00001190]RS19-GC04 2022-11-03
33 [KOPRI-KPDC-00001186]RS19-GC09 2022-11-03
34 [KOPRI-KPDC-00002042]U1540D 2022-09-29
35 [KOPRI-KPDC-00002095]SJ20-MC53 (Antarctic_Peninsula-Multiple Core) 2022-09-29
36 [KOPRI-KPDC-00002080]Particulate and dissolved organic carbon in the convergence region of Antarctic Circumpolar Current 2022-09-27
37 [KOPRI-KPDC-00002057]Chlorophyll data in Marian cove during 2021-2022 summer 2022-09-26
38 [KOPRI-KPDC-00002056]AM22-GC13 2022-09-26
39 [KOPRI-KPDC-00002055]AM22-GC10 2022-09-26
40 [KOPRI-KPDC-00002039]AM22-GC01 2022-09-26
41 [KOPRI-KPDC-00002046]AM22-GC02 2022-09-26
42 [KOPRI-KPDC-00002047]AM22-GC03 2022-09-26
43 [KOPRI-KPDC-00002048]AM22-GC04 2022-09-26
44 [KOPRI-KPDC-00002049]AM22-GC05 2022-09-26
45 [KOPRI-KPDC-00002051]AM22-GC06 2022-09-26
46 [KOPRI-KPDC-00002052]AM22-GC07 2022-09-26
47 [KOPRI-KPDC-00002054]AM22-GC09 2022-09-26
48 [KOPRI-KPDC-00002053]AM22-GC08 2022-09-26
49 [KOPRI-KPDC-00002043]Dissolved inorganic nutrients in the Marian Cove, Antarctica, 2021-22 2022-09-26
50 [KOPRI-KPDC-00002050]Dissolved organic matters in the Marian Cove, Antarctica, 2021-22 2022-09-26
51 [KOPRI-KPDC-00002044]CTD data in eastern region of the southeast indian ridge, Southern Ocean 2022-09-26
52 [KOPRI-KPDC-00002045]LADCP data in eastern region of the southeast indian ridge, Southern Ocean 2022-09-26
53 [KOPRI-KPDC-00002030]Continuous monitoring of pCO2 and its relevant parameters in the coast of the Jang Bogo Station, Antarctica, in the second half of 2021 2022-09-23
54 [KOPRI-KPDC-00002007]EK60 data in the Little American Basin, Ross Sea, 2020. 2022-09-21
55 [KOPRI-KPDC-00001681]Distribution of dissolved inorganic nutrients in the Marian Cove and the Maxwell Bay, Antarctica, 2021 2022-09-20
56 [KOPRI-KPDC-00001683]Dissolved organic matters in the Marian Cove and the Maxwell Bay, Antarctica, 2021 2022-09-20
57 [KOPRI-KPDC-00001468]Satellite SAR data-based sea ice drift vectors in Fram Strait (2019-2020) 2022-09-19
58 [KOPRI-KPDC-00001983]Gondwana biologger data (2022) 2022-09-15
59 [KOPRI-KPDC-00001982]Jangbogo Biologger data (2022) 2022-09-15
60 [KOPRI-KPDC-00001893]The physico-chemical and microbiological parameters within the mixed layer depth in the Amundsen Sea during January 14 to February 16, 2016. 2022-09-13
61 [KOPRI-KPDC-00001976]Chlorophyll-a concentration from the Southeast Indian Ridge (SEIR) area of the Southern Ocean in November 2021 2022-09-08
62 [KOPRI-KPDC-00001977]Temporal variation of marine phytoplankton in the surface water of the Antarctic Jang Bogo Station in Terra Nova Bay, January 2022 - June 2022 2022-09-08
63 [KOPRI-KPDC-00001975]Temporal variation of phytoplankton in the surface water of Marian Cove, King George Island, Antarctica, January 2022 - June 2022 2022-09-08
64 [KOPRI-KPDC-00001969]Migrated seismic data, seismic velocity models, gas hydrate saturation model, and free gas saturation model to investigate the characteristic of the gas hydrate in the western continental margin of the Chukchi Rise 2022-08-22
65 [KOPRI-KPDC-00001958]Geophysical data (MCS and SBP) collected during the 2013 ARA04C and 2014 ARA05C expeditions on the Beufort sea. 2022-06-28
66 [KOPRI-KPDC-00001939]Wind data on ARAON DaDis for Antarctic cruise, 2021/2022 2022-06-10
67 [KOPRI-KPDC-00001940]Weather data on ARAON DaDis for Antarctic cruise, 2021/2022 2022-06-10
68 [KOPRI-KPDC-00001941]Thermosalinograph data on ARAON DaDis for Antarctic cruise, 2021/2022 2022-06-10
69 [KOPRI-KPDC-00001942]Motion sensor data on ARAON DaDis for Antarctic cruise, 2021/2022 2022-06-10
70 [KOPRI-KPDC-00001943]Gyro compass data on ARAON DaDis for Antarctic cruise, 2021/2022 2022-06-10
71 [KOPRI-KPDC-00001944]GPS data on ARAON DaDis for Antarctic cruise, 2021/2022 2022-06-10
72 [KOPRI-KPDC-00001945]Fluorometer data on ARAON DaDis for Antarctic cruise, 2021/2022 2022-06-10
73 [KOPRI-KPDC-00001946]GPS data on ARAON DaDis for Antarctic cruise, 2020/2021 2022-06-10
74 [KOPRI-KPDC-00001938]NIWA oceanographic mooring data in the Drygalski Ice Tongue North 2022 2022-05-31
75 [KOPRI-KPDC-00001937]NIWA oceanographic deep mooring data in the Drygalski Ice Tongue 2022 2022-05-31
76 [KOPRI-KPDC-00001932]LADCP data observed in the ocean near Dotsen and Getz ice shelves, Amundsen Sea, in Jan-Feb, 2022 (ANA12C) 2022-05-03
77 [KOPRI-KPDC-00001930]VMP (Vertical Microstructure Profiler) data observed in the ocean near Dotson and Getz ice shelves, Amundsen Sea, in Jan-Feb, 2022 (ANA12C) 2022-05-03
78 [KOPRI-KPDC-00001931]CTD profiles observed in the ocean near Dotsen and Getz ice shelves, Amundsen Sea, in Jan-Feb, 2022 (ANA12C) 2022-05-03
79 [KOPRI-KPDC-00001929]CTD profiles observed in the Terra Nova Bay, Ross Sea, in March 2022 (ANA12D) 2022-05-02
80 [KOPRI-KPDC-00001928]LADCP data observed in the Terra Nova Bay, Ross Sea, in March, 2022 (ANA12D) 2022-05-02
81 [KOPRI-KPDC-00000235]CTD Data surrounding Amundsen Sea of Antarctic in 2011 2022-04-25
82 [KOPRI-KPDC-00001902]Time series of volume backscattering strength in the Arctic Ocean 2022-04-11
83 [KOPRI-KPDC-00001903]Zooplankton, environmental data in Chukchi sea, 2016-2020 2022-04-05
84 [KOPRI-KPDC-00001913]ANA11A EK60 data in the Ross Sea 2022-03-24
85 [KOPRI-KPDC-00001912]ANA10C EK60 data in the Ross Sea 2022-03-24
86 [KOPRI-KPDC-00001911]ANA09B EK60 data in the Ross Sea 2022-03-24
87 [KOPRI-KPDC-00001910]ANA08C EK60 raw data in the Ross Sea 2022-03-24
88 [KOPRI-KPDC-00001909]Reconstructed Chlorophyll-a Concentration off the Cape Hallett 2022-03-22
89 [KOPRI-KPDC-00001907]Temporal variation of marine phytoplankton in the surface water of the Antarctic Jang Bogo Station in Terra Nova Bay, July 2021 - December 2021 2022-03-04
90 [KOPRI-KPDC-00001906]Temporal variation of phytoplankton in the surface water of Marian Cove, King George Island, Antarctica, September 2021 - December 2021 2022-03-04
91 [KOPRI-KPDC-00001905]2015 ARA06C-01JPC: Lipid biomarkers (HBIs, sterols) from core sediments 2022-03-02
92 [KOPRI-KPDC-00001904]Lipid biomarkers (HBIs, sterols) from surface sediments in the Western Arctic 2022-03-02
93 [KOPRI-KPDC-00000581]Moderate Resolution Imaging Spectroradiometer in Korea (MODIS) / Aqua, 2013 2022-02-09
94 [KOPRI-KPDC-00000580]Moderate Resolution Imaging Spectroradiometer in Korea (MODIS) / Aqua, 2012 2022-02-09
95 [KOPRI-KPDC-00001022]Sea Ice Concentrations from Nimbus-7 SMMR and DMSP SSM/I-SSMIS Passive Microwave Data, Version 1, Arctic, 2016 2022-02-07
96 [KOPRI-KPDC-00001021]Sea Ice Concentrations from Nimbus-7 SMMR and DMSP SSM/I-SSMIS Passive Microwave Data, Version 1, Arctic, 2009 2022-02-07
97 [KOPRI-KPDC-00001020]Sea Ice Concentrations from Nimbus-7 SMMR and DMSP SSM/I-SSMIS Passive Microwave Data, Version 1, Arctic, 2008 2022-02-07
98 [KOPRI-KPDC-00001019]Sea Ice Concentrations from Nimbus-7 SMMR and DMSP SSM/I-SSMIS Passive Microwave Data, Version 1, Arctic, 2007 2022-02-07
99 [KOPRI-KPDC-00001018]Sea Ice Concentrations from Nimbus-7 SMMR and DMSP SSM/I-SSMIS Passive Microwave Data, Version 1, Antarctic, 2009 2022-02-07
100 [KOPRI-KPDC-00001017]Sea Ice Concentrations from Nimbus-7 SMMR and DMSP SSM/I-SSMIS Passive Microwave Data, Version 1, Antarctic, 2008 2022-02-07